sensor_id;sensor_type;location;lat;lon;timestamp;temperature;humidity
30371;DHT22;17164;48.590;11.410;2023-05-16T00:00:04;9.30;99.90
30371;DHT22;17164;48.590;11.410;2023-05-16T00:02:36;9.30;99.90
30371;DHT22;17164;48.590;11.410;2023-05-16T00:05:04;9.30;99.90
30371;DHT22;17164;48.590;11.410;2023-05-16T00:07:33;9.30;99.90
30371;DHT22;17164;48.590;11.410;2023-05-16T00:09:59;9.40;99.90
30371;DHT22;17164;48.590;11.410;2023-05-16T00:12:24;9.40;99.90
30371;DHT22;17164;48.590;11.410;2023-05-16T00:14:50;9.40;99.90
30371;DHT22;17164;48.590;11.410;2023-05-16T00:17:16;9.40;99.90
30371;DHT22;17164;48.590;11.410;2023-05-16T00:19:45;9.40;99.90
30371;DHT22;17164;48.590;11.410;2023-05-16T00:22:11;9.40;99.90
30371;DHT22;17164;48.590;11.410;2023-05-16T00:24:37;9.40;99.90
30371;DHT22;17164;48.590;11.410;2023-05-16T00:27:03;9.40;99.90
30371;DHT22;17164;48.590;11.410;2023-05-16T00:29:31;9.50;99.90
30371;DHT22;17164;48.590;11.410;2023-05-16T00:31:57;9.50;99.90
30371;DHT22;17164;48.590;11.410;2023-05-16T00:34:23;9.50;99.90
30371;DHT22;17164;48.590;11.410;2023-05-16T00:36:52;9.50;99.90
30371;DHT22;17164;48.590;11.410;2023-05-16T00:39:18;9.50;99.90
30371;DHT22;17164;48.590;11.410;2023-05-16T00:41:44;9.50;99.90
30371;DHT22;17164;48.590;11.410;2023-05-16T00:44:10;9.50;99.90
30371;DHT22;17164;48.590;11.410;2023-05-16T00:46:36;9.50;99.90
30371;DHT22;17164;48.590;11.410;2023-05-16T00:49:02;9.40;99.90
30371;DHT22;17164;48.590;11.410;2023-05-16T00:51:28;9.40;99.90
30371;DHT22;17164;48.590;11.410;2023-05-16T00:53:54;9.50;99.90
30371;DHT22;17164;48.590;11.410;2023-05-16T00:56:21;9.40;99.90
30371;DHT22;17164;48.590;11.410;2023-05-16T00:58:47;9.40;99.90
30371;DHT22;17164;48.590;11.410;2023-05-16T01:01:13;9.50;99.90
30371;DHT22;17164;48.590;11.410;2023-05-16T01:03:39;9.50;99.90
30371;DHT22;17164;48.590;11.410;2023-05-16T01:06:05;9.50;99.90
30371;DHT22;17164;48.590;11.410;2023-05-16T01:08:32;9.50;99.90
30371;DHT22;17164;48.590;11.410;2023-05-16T01:11:05;9.50;99.90
30371;DHT22;17164;48.590;11.410;2023-05-16T01:14:03;9.50;99.90
30371;DHT22;17164;48.590;11.410;2023-05-16T01:16:41;9.50;99.90
30371;DHT22;17164;48.590;11.410;2023-05-16T01:21:58;9.60;99.90
30371;DHT22;17164;48.590;11.410;2023-05-16T01:24:33;9.50;99.90
30371;DHT22;17164;48.590;11.410;2023-05-16T01:26:59;9.60;99.90
30371;DHT22;17164;48.590;11.410;2023-05-16T01:29:25;9.50;99.90
30371;DHT22;17164;48.590;11.410;2023-05-16T01:31:51;9.60;99.90
30371;DHT22;17164;48.590;11.410;2023-05-16T01:34:17;9.60;99.90
30371;DHT22;17164;48.590;11.410;2023-05-16T01:37:14;9.60;99.90
30371;DHT22;17164;48.590;11.410;2023-05-16T01:39:51;9.60;99.90
30371;DHT22;17164;48.590;11.410;2023-05-16T01:42:20;9.60;99.90
30371;DHT22;17164;48.590;11.410;2023-05-16T01:44:57;9.60;99.90
30371;DHT22;17164;48.590;11.410;2023-05-16T01:47:24;9.60;99.90
30371;DHT22;17164;48.590;11.410;2023-05-16T01:49:57;9.60;99.90
30371;DHT22;17164;48.590;11.410;2023-05-16T01:55:10;9.60;99.90
30371;DHT22;17164;48.590;11.410;2023-05-16T01:57:40;9.60;99.90
30371;DHT22;17164;48.590;11.410;2023-05-16T02:00:07;9.60;99.90
30371;DHT22;17164;48.590;11.410;2023-05-16T02:02:33;9.60;99.90
30371;DHT22;17164;48.590;11.410;2023-05-16T02:04:58;9.60;99.90
30371;DHT22;17164;48.590;11.410;2023-05-16T02:07:24;9.60;99.90
30371;DHT22;17164;48.590;11.410;2023-05-16T02:09:49;9.60;99.90
30371;DHT22;17164;48.590;11.410;2023-05-16T02:12:15;9.70;99.90
30371;DHT22;17164;48.590;11.410;2023-05-16T02:14:41;9.70;99.90
30371;DHT22;17164;48.590;11.410;2023-05-16T02:17:06;9.70;99.90
30371;DHT22;17164;48.590;11.410;2023-05-16T02:19:32;9.60;99.90
30371;DHT22;17164;48.590;11.410;2023-05-16T02:21:57;9.60;99.90
30371;DHT22;17164;48.590;11.410;2023-05-16T02:24:23;9.60;99.90
30371;DHT22;17164;48.590;11.410;2023-05-16T02:26:48;9.60;99.90
30371;DHT22;17164;48.590;11.410;2023-05-16T02:29:15;9.60;99.90
30371;DHT22;17164;48.590;11.410;2023-05-16T02:31:41;9.60;99.90
30371;DHT22;17164;48.590;11.410;2023-05-16T02:34:07;9.60;99.90
30371;DHT22;17164;48.590;11.410;2023-05-16T02:36:33;9.60;99.90
30371;DHT22;17164;48.590;11.410;2023-05-16T02:39:00;9.60;99.90
30371;DHT22;17164;48.590;11.410;2023-05-16T02:41:26;9.60;99.90
30371;DHT22;17164;48.590;11.410;2023-05-16T02:43:52;9.50;99.90
30371;DHT22;17164;48.590;11.410;2023-05-16T02:46:21;9.50;99.90
30371;DHT22;17164;48.590;11.410;2023-05-16T02:48:48;9.50;99.90
30371;DHT22;17164;48.590;11.410;2023-05-16T02:51:14;9.50;99.90
30371;DHT22;17164;48.590;11.410;2023-05-16T02:53:39;9.50;99.90
30371;DHT22;17164;48.590;11.410;2023-05-16T02:56:05;9.50;99.90
30371;DHT22;17164;48.590;11.410;2023-05-16T02:58:31;9.50;99.90
30371;DHT22;17164;48.590;11.410;2023-05-16T03:00:57;9.50;99.90
30371;DHT22;17164;48.590;11.410;2023-05-16T03:03:23;9.50;99.90
30371;DHT22;17164;48.590;11.410;2023-05-16T03:05:49;9.50;99.90
30371;DHT22;17164;48.590;11.410;2023-05-16T03:08:15;9.50;99.90
30371;DHT22;17164;48.590;11.410;2023-05-16T03:10:41;9.60;99.90
30371;DHT22;17164;48.590;11.410;2023-05-16T03:13:06;9.60;99.90
30371;DHT22;17164;48.590;11.410;2023-05-16T03:15:32;9.60;99.90
30371;DHT22;17164;48.590;11.410;2023-05-16T03:17:58;9.60;99.90
30371;DHT22;17164;48.590;11.410;2023-05-16T03:20:23;9.60;99.90
30371;DHT22;17164;48.590;11.410;2023-05-16T03:22:49;9.60;99.90
30371;DHT22;17164;48.590;11.410;2023-05-16T03:25:14;9.60;99.90
30371;DHT22;17164;48.590;11.410;2023-05-16T03:27:40;9.60;99.90
30371;DHT22;17164;48.590;11.410;2023-05-16T03:30:06;9.60;99.90
30371;DHT22;17164;48.590;11.410;2023-05-16T03:32:33;9.60;99.90
30371;DHT22;17164;48.590;11.410;2023-05-16T03:34:58;9.60;99.90
30371;DHT22;17164;48.590;11.410;2023-05-16T03:37:24;9.70;99.90
30371;DHT22;17164;48.590;11.410;2023-05-16T03:39:50;9.70;99.90
30371;DHT22;17164;48.590;11.410;2023-05-16T03:42:16;9.70;99.90
30371;DHT22;17164;48.590;11.410;2023-05-16T03:44:43;9.70;99.90
30371;DHT22;17164;48.590;11.410;2023-05-16T03:47:09;9.70;99.90
30371;DHT22;17164;48.590;11.410;2023-05-16T03:49:34;9.70;99.90
30371;DHT22;17164;48.590;11.410;2023-05-16T03:52:02;9.70;99.90
30371;DHT22;17164;48.590;11.410;2023-05-16T03:54:28;9.70;99.90
30371;DHT22;17164;48.590;11.410;2023-05-16T03:56:53;9.70;99.90
30371;DHT22;17164;48.590;11.410;2023-05-16T03:59:19;9.70;99.90
30371;DHT22;17164;48.590;11.410;2023-05-16T04:01:45;9.70;99.90
30371;DHT22;17164;48.590;11.410;2023-05-16T04:04:10;9.70;99.90
30371;DHT22;17164;48.590;11.410;2023-05-16T04:06:36;9.70;99.90
30371;DHT22;17164;48.590;11.410;2023-05-16T04:09:01;9.80;99.90
30371;DHT22;17164;48.590;11.410;2023-05-16T04:11:27;9.70;99.90
30371;DHT22;17164;48.590;11.410;2023-05-16T04:13:53;9.70;99.90
30371;DHT22;17164;48.590;11.410;2023-05-16T04:16:18;9.80;99.90
30371;DHT22;17164;48.590;11.410;2023-05-16T04:18:45;9.80;99.90
30371;DHT22;17164;48.590;11.410;2023-05-16T04:21:10;9.80;99.90
30371;DHT22;17164;48.590;11.410;2023-05-16T04:23:42;9.80;99.90
30371;DHT22;17164;48.590;11.410;2023-05-16T04:26:08;9.80;99.90
30371;DHT22;17164;48.590;11.410;2023-05-16T04:28:34;9.80;99.90
30371;DHT22;17164;48.590;11.410;2023-05-16T04:31:00;9.80;99.90
30371;DHT22;17164;48.590;11.410;2023-05-16T04:33:26;9.80;99.90
30371;DHT22;17164;48.590;11.410;2023-05-16T04:35:51;9.80;99.90
30371;DHT22;17164;48.590;11.410;2023-05-16T04:38:19;9.80;99.90
30371;DHT22;17164;48.590;11.410;2023-05-16T04:40:45;9.80;99.90
30371;DHT22;17164;48.590;11.410;2023-05-16T04:43:10;9.80;99.90
30371;DHT22;17164;48.590;11.410;2023-05-16T04:45:36;9.80;99.90
30371;DHT22;17164;48.590;11.410;2023-05-16T04:48:02;9.80;99.90
30371;DHT22;17164;48.590;11.410;2023-05-16T04:50:28;9.90;99.90
30371;DHT22;17164;48.590;11.410;2023-05-16T04:52:54;9.90;99.90
30371;DHT22;17164;48.590;11.410;2023-05-16T04:55:19;9.80;99.90
30371;DHT22;17164;48.590;11.410;2023-05-16T04:57:45;9.90;99.90
30371;DHT22;17164;48.590;11.410;2023-05-16T05:00:11;9.90;99.90
30371;DHT22;17164;48.590;11.410;2023-05-16T05:02:38;9.90;99.90
30371;DHT22;17164;48.590;11.410;2023-05-16T05:05:04;10.00;99.90
30371;DHT22;17164;48.590;11.410;2023-05-16T05:07:31;10.00;99.90
30371;DHT22;17164;48.590;11.410;2023-05-16T05:09:57;10.00;99.90
30371;DHT22;17164;48.590;11.410;2023-05-16T05:12:22;10.00;99.90
30371;DHT22;17164;48.590;11.410;2023-05-16T05:14:48;10.00;99.90
30371;DHT22;17164;48.590;11.410;2023-05-16T05:17:14;10.10;99.90
30371;DHT22;17164;48.590;11.410;2023-05-16T05:19:40;10.10;99.90
30371;DHT22;17164;48.590;11.410;2023-05-16T05:22:06;10.10;99.90
30371;DHT22;17164;48.590;11.410;2023-05-16T05:24:31;10.10;99.90
30371;DHT22;17164;48.590;11.410;2023-05-16T05:26:57;10.20;99.90
30371;DHT22;17164;48.590;11.410;2023-05-16T05:29:22;10.20;99.90
30371;DHT22;17164;48.590;11.410;2023-05-16T05:31:48;10.20;99.90
30371;DHT22;17164;48.590;11.410;2023-05-16T05:34:14;10.30;99.90
30371;DHT22;17164;48.590;11.410;2023-05-16T05:36:39;10.30;99.90
30371;DHT22;17164;48.590;11.410;2023-05-16T05:39:05;10.30;99.90
30371;DHT22;17164;48.590;11.410;2023-05-16T05:41:31;10.40;99.90
30371;DHT22;17164;48.590;11.410;2023-05-16T05:43:56;10.50;99.90
30371;DHT22;17164;48.590;11.410;2023-05-16T05:46:23;10.40;99.90
30371;DHT22;17164;48.590;11.410;2023-05-16T05:48:49;10.40;99.90
30371;DHT22;17164;48.590;11.410;2023-05-16T05:51:15;10.50;99.90
30371;DHT22;17164;48.590;11.410;2023-05-16T05:53:40;10.50;99.90
30371;DHT22;17164;48.590;11.410;2023-05-16T05:56:07;10.50;99.90
30371;DHT22;17164;48.590;11.410;2023-05-16T05:58:32;10.50;99.90
30371;DHT22;17164;48.590;11.410;2023-05-16T06:00:58;10.50;99.90
30371;DHT22;17164;48.590;11.410;2023-05-16T06:03:24;10.60;99.90
30371;DHT22;17164;48.590;11.410;2023-05-16T06:05:49;10.70;99.90
30371;DHT22;17164;48.590;11.410;2023-05-16T06:08:16;10.70;99.90
30371;DHT22;17164;48.590;11.410;2023-05-16T06:10:42;10.80;99.90
30371;DHT22;17164;48.590;11.410;2023-05-16T06:13:07;10.80;99.90
30371;DHT22;17164;48.590;11.410;2023-05-16T06:15:33;10.80;99.90
30371;DHT22;17164;48.590;11.410;2023-05-16T06:17:58;10.90;99.90
30371;DHT22;17164;48.590;11.410;2023-05-16T06:20:24;10.90;99.90
30371;DHT22;17164;48.590;11.410;2023-05-16T06:22:49;11.00;99.90
30371;DHT22;17164;48.590;11.410;2023-05-16T06:25:15;11.00;99.90
30371;DHT22;17164;48.590;11.410;2023-05-16T06:27:41;11.10;99.90
30371;DHT22;17164;48.590;11.410;2023-05-16T06:30:07;11.10;99.90
30371;DHT22;17164;48.590;11.410;2023-05-16T06:32:33;11.10;99.90
30371;DHT22;17164;48.590;11.410;2023-05-16T06:34:58;11.20;99.90
30371;DHT22;17164;48.590;11.410;2023-05-16T06:37:24;11.20;99.90
30371;DHT22;17164;48.590;11.410;2023-05-16T06:39:50;11.20;99.90
30371;DHT22;17164;48.590;11.410;2023-05-16T06:42:16;11.20;99.90
30371;DHT22;17164;48.590;11.410;2023-05-16T06:44:43;11.30;99.90
30371;DHT22;17164;48.590;11.410;2023-05-16T06:47:08;11.30;99.90
30371;DHT22;17164;48.590;11.410;2023-05-16T06:49:34;11.40;99.90
30371;DHT22;17164;48.590;11.410;2023-05-16T06:52:00;11.30;99.90
30371;DHT22;17164;48.590;11.410;2023-05-16T06:54:25;11.40;99.90
30371;DHT22;17164;48.590;11.410;2023-05-16T06:56:51;11.40;99.90
30371;DHT22;17164;48.590;11.410;2023-05-16T06:59:16;11.50;99.90
30371;DHT22;17164;48.590;11.410;2023-05-16T07:01:42;11.50;99.90
30371;DHT22;17164;48.590;11.410;2023-05-16T07:04:08;11.60;99.90
30371;DHT22;17164;48.590;11.410;2023-05-16T07:06:34;11.60;99.90
30371;DHT22;17164;48.590;11.410;2023-05-16T07:09:00;11.60;99.90
30371;DHT22;17164;48.590;11.410;2023-05-16T07:11:26;11.70;99.90
30371;DHT22;17164;48.590;11.410;2023-05-16T07:13:52;11.70;99.90
30371;DHT22;17164;48.590;11.410;2023-05-16T07:16:18;11.80;99.90
30371;DHT22;17164;48.590;11.410;2023-05-16T07:18:43;11.80;99.90
30371;DHT22;17164;48.590;11.410;2023-05-16T07:21:09;11.90;99.90
30371;DHT22;17164;48.590;11.410;2023-05-16T07:23:35;11.90;99.90
30371;DHT22;17164;48.590;11.410;2023-05-16T07:26:01;11.90;99.90
30371;DHT22;17164;48.590;11.410;2023-05-16T07:28:27;11.90;99.90
30371;DHT22;17164;48.590;11.410;2023-05-16T07:30:52;11.90;99.90
30371;DHT22;17164;48.590;11.410;2023-05-16T07:33:19;11.90;99.90
30371;DHT22;17164;48.590;11.410;2023-05-16T07:35:44;12.00;99.90
30371;DHT22;17164;48.590;11.410;2023-05-16T07:38:10;12.00;99.90
30371;DHT22;17164;48.590;11.410;2023-05-16T07:40:36;12.00;99.90
30371;DHT22;17164;48.590;11.410;2023-05-16T07:43:02;12.00;99.90
30371;DHT22;17164;48.590;11.410;2023-05-16T07:45:27;12.10;99.90
30371;DHT22;17164;48.590;11.410;2023-05-16T07:47:53;12.10;99.90
30371;DHT22;17164;48.590;11.410;2023-05-16T07:50:19;12.20;99.90
30371;DHT22;17164;48.590;11.410;2023-05-16T07:52:44;12.30;99.90
30371;DHT22;17164;48.590;11.410;2023-05-16T07:55:10;12.40;99.90
30371;DHT22;17164;48.590;11.410;2023-05-16T07:57:36;12.50;99.90
30371;DHT22;17164;48.590;11.410;2023-05-16T08:00:02;12.60;99.90
30371;DHT22;17164;48.590;11.410;2023-05-16T08:02:28;12.60;99.90
30371;DHT22;17164;48.590;11.410;2023-05-16T08:04:55;12.70;99.90
30371;DHT22;17164;48.590;11.410;2023-05-16T08:07:24;12.80;99.90
30371;DHT22;17164;48.590;11.410;2023-05-16T08:09:50;12.90;99.90
30371;DHT22;17164;48.590;11.410;2023-05-16T08:12:15;13.00;99.90
30371;DHT22;17164;48.590;11.410;2023-05-16T08:14:41;13.10;99.90
30371;DHT22;17164;48.590;11.410;2023-05-16T08:17:07;13.20;99.90
30371;DHT22;17164;48.590;11.410;2023-05-16T08:19:34;13.30;99.90
30371;DHT22;17164;48.590;11.410;2023-05-16T08:22:00;13.30;99.90
30371;DHT22;17164;48.590;11.410;2023-05-16T08:24:26;13.40;99.90
30371;DHT22;17164;48.590;11.410;2023-05-16T08:26:52;13.50;99.90
30371;DHT22;17164;48.590;11.410;2023-05-16T08:29:18;13.50;99.90
30371;DHT22;17164;48.590;11.410;2023-05-16T08:31:43;13.60;99.90
30371;DHT22;17164;48.590;11.410;2023-05-16T08:34:09;13.70;99.90
30371;DHT22;17164;48.590;11.410;2023-05-16T08:36:36;13.80;99.90
30371;DHT22;17164;48.590;11.410;2023-05-16T08:39:02;13.80;99.90
30371;DHT22;17164;48.590;11.410;2023-05-16T08:41:28;13.90;99.90
30371;DHT22;17164;48.590;11.410;2023-05-16T08:43:54;14.00;99.90
30371;DHT22;17164;48.590;11.410;2023-05-16T08:46:21;14.00;99.90
30371;DHT22;17164;48.590;11.410;2023-05-16T08:48:51;14.00;99.90
30371;DHT22;17164;48.590;11.410;2023-05-16T08:51:18;14.10;99.90
30371;DHT22;17164;48.590;11.410;2023-05-16T08:53:51;14.10;99.90
30371;DHT22;17164;48.590;11.410;2023-05-16T08:56:19;14.00;99.90
30371;DHT22;17164;48.590;11.410;2023-05-16T08:58:46;14.00;99.90
30371;DHT22;17164;48.590;11.410;2023-05-16T09:01:13;14.00;99.90
30371;DHT22;17164;48.590;11.410;2023-05-16T09:03:40;14.00;99.90
30371;DHT22;17164;48.590;11.410;2023-05-16T09:06:06;14.00;99.90
30371;DHT22;17164;48.590;11.410;2023-05-16T09:08:32;14.10;99.90
30371;DHT22;17164;48.590;11.410;2023-05-16T09:10:58;14.10;99.90
30371;DHT22;17164;48.590;11.410;2023-05-16T09:13:24;14.20;99.90
30371;DHT22;17164;48.590;11.410;2023-05-16T09:18:35;14.30;99.90
30371;DHT22;17164;48.590;11.410;2023-05-16T09:21:02;14.40;99.90
30371;DHT22;17164;48.590;11.410;2023-05-16T09:23:28;14.40;99.90
30371;DHT22;17164;48.590;11.410;2023-05-16T09:25:54;14.50;99.90
30371;DHT22;17164;48.590;11.410;2023-05-16T09:28:19;14.50;99.90
30371;DHT22;17164;48.590;11.410;2023-05-16T09:30:47;14.50;99.90
30371;DHT22;17164;48.590;11.410;2023-05-16T09:33:13;14.60;99.90
30371;DHT22;17164;48.590;11.410;2023-05-16T09:35:39;14.60;99.90
30371;DHT22;17164;48.590;11.410;2023-05-16T09:38:04;14.60;99.90
30371;DHT22;17164;48.590;11.410;2023-05-16T09:40:30;14.60;99.90
30371;DHT22;17164;48.590;11.410;2023-05-16T09:43:03;14.70;99.90
30371;DHT22;17164;48.590;11.410;2023-05-16T09:45:30;14.70;99.90
30371;DHT22;17164;48.590;11.410;2023-05-16T09:48:07;14.70;99.90
30371;DHT22;17164;48.590;11.410;2023-05-16T09:50:34;14.60;99.90
30371;DHT22;17164;48.590;11.410;2023-05-16T09:53:01;14.60;99.90
30371;DHT22;17164;48.590;11.410;2023-05-16T09:55:27;14.50;99.90
30371;DHT22;17164;48.590;11.410;2023-05-16T09:57:52;14.50;99.90
30371;DHT22;17164;48.590;11.410;2023-05-16T10:00:18;14.50;99.90
30371;DHT22;17164;48.590;11.410;2023-05-16T10:02:44;14.60;99.90
30371;DHT22;17164;48.590;11.410;2023-05-16T10:05:10;14.60;99.90
30371;DHT22;17164;48.590;11.410;2023-05-16T10:07:36;14.70;99.90
30371;DHT22;17164;48.590;11.410;2023-05-16T10:10:05;14.70;99.90
30371;DHT22;17164;48.590;11.410;2023-05-16T10:12:33;14.80;99.90
30371;DHT22;17164;48.590;11.410;2023-05-16T10:15:00;14.90;99.90
30371;DHT22;17164;48.590;11.410;2023-05-16T10:17:29;15.00;99.90
30371;DHT22;17164;48.590;11.410;2023-05-16T10:19:57;15.10;99.90
30371;DHT22;17164;48.590;11.410;2023-05-16T10:22:26;15.30;99.90
30371;DHT22;17164;48.590;11.410;2023-05-16T10:25:11;15.30;99.90
30371;DHT22;17164;48.590;11.410;2023-05-16T10:27:40;15.40;99.90
30371;DHT22;17164;48.590;11.410;2023-05-16T10:30:07;15.40;99.90
30371;DHT22;17164;48.590;11.410;2023-05-16T10:32:35;15.40;99.90
30371;DHT22;17164;48.590;11.410;2023-05-16T10:35:02;15.40;99.90
30371;DHT22;17164;48.590;11.410;2023-05-16T10:37:30;15.40;99.90
30371;DHT22;17164;48.590;11.410;2023-05-16T10:39:58;15.30;99.90
30371;DHT22;17164;48.590;11.410;2023-05-16T10:42:24;15.20;99.90
30371;DHT22;17164;48.590;11.410;2023-05-16T10:44:53;15.20;99.90
30371;DHT22;17164;48.590;11.410;2023-05-16T10:47:20;15.10;99.90
30371;DHT22;17164;48.590;11.410;2023-05-16T10:49:46;15.10;99.90
30371;DHT22;17164;48.590;11.410;2023-05-16T10:52:12;15.00;99.90
30371;DHT22;17164;48.590;11.410;2023-05-16T10:54:42;15.00;99.90
30371;DHT22;17164;48.590;11.410;2023-05-16T10:57:21;15.00;99.90
30371;DHT22;17164;48.590;11.410;2023-05-16T10:59:49;15.00;99.90
30371;DHT22;17164;48.590;11.410;2023-05-16T11:02:29;15.00;99.90
30371;DHT22;17164;48.590;11.410;2023-05-16T11:04:58;15.10;99.90
30371;DHT22;17164;48.590;11.410;2023-05-16T11:07:32;15.20;99.90
30371;DHT22;17164;48.590;11.410;2023-05-16T11:10:05;15.30;99.90
30371;DHT22;17164;48.590;11.410;2023-05-16T11:12:47;15.40;99.90
30371;DHT22;17164;48.590;11.410;2023-05-16T11:15:18;15.40;99.90
30371;DHT22;17164;48.590;11.410;2023-05-16T11:17:44;15.40;99.90
30371;DHT22;17164;48.590;11.410;2023-05-16T11:20:34;15.40;99.90
30371;DHT22;17164;48.590;11.410;2023-05-16T11:25:55;15.20;99.90
30371;DHT22;17164;48.590;11.410;2023-05-16T11:28:22;15.10;99.90
30371;DHT22;17164;48.590;11.410;2023-05-16T11:30:53;15.00;99.90
30371;DHT22;17164;48.590;11.410;2023-05-16T11:33:21;14.80;99.90
30371;DHT22;17164;48.590;11.410;2023-05-16T11:36:06;14.70;99.90
30371;DHT22;17164;48.590;11.410;2023-05-16T11:38:32;14.60;99.90
30371;DHT22;17164;48.590;11.410;2023-05-16T11:41:03;14.40;99.90
30371;DHT22;17164;48.590;11.410;2023-05-16T11:43:36;14.20;99.90
30371;DHT22;17164;48.590;11.410;2023-05-16T11:46:02;14.10;99.90
30371;DHT22;17164;48.590;11.410;2023-05-16T11:48:28;13.90;99.90
30371;DHT22;17164;48.590;11.410;2023-05-16T11:50:54;13.80;99.90
30371;DHT22;17164;48.590;11.410;2023-05-16T11:53:20;13.60;99.90
30371;DHT22;17164;48.590;11.410;2023-05-16T11:55:46;13.40;99.90
30371;DHT22;17164;48.590;11.410;2023-05-16T11:58:17;13.20;99.90
30371;DHT22;17164;48.590;11.410;2023-05-16T12:00:50;13.00;99.90
30371;DHT22;17164;48.590;11.410;2023-05-16T12:03:17;12.80;99.90
30371;DHT22;17164;48.590;11.410;2023-05-16T12:05:54;12.60;99.90
30371;DHT22;17164;48.590;11.410;2023-05-16T12:08:22;12.50;99.90
30371;DHT22;17164;48.590;11.410;2023-05-16T12:10:49;12.40;99.90
30371;DHT22;17164;48.590;11.410;2023-05-16T12:13:16;12.40;99.90
30371;DHT22;17164;48.590;11.410;2023-05-16T12:15:42;12.30;99.90
30371;DHT22;17164;48.590;11.410;2023-05-16T12:18:08;12.20;99.90
30371;DHT22;17164;48.590;11.410;2023-05-16T12:20:34;12.20;99.90
30371;DHT22;17164;48.590;11.410;2023-05-16T12:23:00;12.20;99.90
30371;DHT22;17164;48.590;11.410;2023-05-16T12:25:26;12.20;99.90
30371;DHT22;17164;48.590;11.410;2023-05-16T12:27:53;12.10;99.90
30371;DHT22;17164;48.590;11.410;2023-05-16T12:30:22;12.10;99.90
30371;DHT22;17164;48.590;11.410;2023-05-16T12:33:02;12.20;99.90
30371;DHT22;17164;48.590;11.410;2023-05-16T12:35:32;12.20;99.90
30371;DHT22;17164;48.590;11.410;2023-05-16T12:37:59;12.20;99.90
30371;DHT22;17164;48.590;11.410;2023-05-16T12:40:28;12.20;99.90
30371;DHT22;17164;48.590;11.410;2023-05-16T12:42:54;12.20;99.90
30371;DHT22;17164;48.590;11.410;2023-05-16T12:45:25;12.20;99.90
30371;DHT22;17164;48.590;11.410;2023-05-16T12:47:51;12.20;99.90
30371;DHT22;17164;48.590;11.410;2023-05-16T12:50:17;12.20;99.90
30371;DHT22;17164;48.590;11.410;2023-05-16T12:52:50;12.30;99.90
30371;DHT22;17164;48.590;11.410;2023-05-16T12:55:17;12.30;99.90
30371;DHT22;17164;48.590;11.410;2023-05-16T12:57:43;12.40;99.90
30371;DHT22;17164;48.590;11.410;2023-05-16T13:00:11;12.40;99.90
30371;DHT22;17164;48.590;11.410;2023-05-16T13:02:37;12.50;99.90
30371;DHT22;17164;48.590;11.410;2023-05-16T13:05:03;12.50;99.90
30371;DHT22;17164;48.590;11.410;2023-05-16T13:07:29;12.50;99.90
30371;DHT22;17164;48.590;11.410;2023-05-16T13:09:55;12.50;99.90
30371;DHT22;17164;48.590;11.410;2023-05-16T13:12:20;12.50;99.90
30371;DHT22;17164;48.590;11.410;2023-05-16T13:14:54;12.50;99.90
30371;DHT22;17164;48.590;11.410;2023-05-16T13:17:19;12.50;99.90
30371;DHT22;17164;48.590;11.410;2023-05-16T13:19:45;12.40;99.90
30371;DHT22;17164;48.590;11.410;2023-05-16T13:22:11;12.40;99.90
30371;DHT22;17164;48.590;11.410;2023-05-16T13:24:37;12.30;99.90
30371;DHT22;17164;48.590;11.410;2023-05-16T13:27:03;12.20;99.90
30371;DHT22;17164;48.590;11.410;2023-05-16T13:29:28;12.10;99.90
30371;DHT22;17164;48.590;11.410;2023-05-16T13:31:54;12.00;99.90
30371;DHT22;17164;48.590;11.410;2023-05-16T13:34:19;11.90;99.90
30371;DHT22;17164;48.590;11.410;2023-05-16T13:36:45;11.90;99.90
30371;DHT22;17164;48.590;11.410;2023-05-16T13:39:12;11.90;99.90
30371;DHT22;17164;48.590;11.410;2023-05-16T13:41:38;11.80;99.90
30371;DHT22;17164;48.590;11.410;2023-05-16T13:44:05;11.80;99.90
30371;DHT22;17164;48.590;11.410;2023-05-16T13:46:31;11.80;99.90
30371;DHT22;17164;48.590;11.410;2023-05-16T13:48:56;11.80;99.90
30371;DHT22;17164;48.590;11.410;2023-05-16T13:51:22;11.80;99.90
30371;DHT22;17164;48.590;11.410;2023-05-16T13:53:47;11.80;99.90
30371;DHT22;17164;48.590;11.410;2023-05-16T13:56:13;11.80;99.90
30371;DHT22;17164;48.590;11.410;2023-05-16T13:58:39;11.80;99.90
30371;DHT22;17164;48.590;11.410;2023-05-16T14:01:05;11.90;99.90
30371;DHT22;17164;48.590;11.410;2023-05-16T14:03:30;11.90;99.90
30371;DHT22;17164;48.590;11.410;2023-05-16T14:05:56;12.00;99.90
30371;DHT22;17164;48.590;11.410;2023-05-16T14:08:22;12.00;99.90
30371;DHT22;17164;48.590;11.410;2023-05-16T14:10:47;12.10;99.90
30371;DHT22;17164;48.590;11.410;2023-05-16T14:13:13;12.20;99.90
30371;DHT22;17164;48.590;11.410;2023-05-16T14:15:39;12.20;99.90
30371;DHT22;17164;48.590;11.410;2023-05-16T14:18:05;12.30;99.90
30371;DHT22;17164;48.590;11.410;2023-05-16T14:20:31;12.40;99.90
30371;DHT22;17164;48.590;11.410;2023-05-16T14:22:57;12.50;99.90
30371;DHT22;17164;48.590;11.410;2023-05-16T14:25:23;12.50;99.90
30371;DHT22;17164;48.590;11.410;2023-05-16T14:27:48;12.50;99.90
30371;DHT22;17164;48.590;11.410;2023-05-16T14:30:15;12.60;99.90
30371;DHT22;17164;48.590;11.410;2023-05-16T14:32:41;12.60;99.90
30371;DHT22;17164;48.590;11.410;2023-05-16T14:35:07;12.60;99.90
30371;DHT22;17164;48.590;11.410;2023-05-16T14:37:34;12.60;99.90
30371;DHT22;17164;48.590;11.410;2023-05-16T14:40:00;12.70;99.90
30371;DHT22;17164;48.590;11.410;2023-05-16T14:42:25;12.70;99.90
30371;DHT22;17164;48.590;11.410;2023-05-16T14:44:51;12.70;99.90
30371;DHT22;17164;48.590;11.410;2023-05-16T14:47:17;12.70;99.90
30371;DHT22;17164;48.590;11.410;2023-05-16T14:49:43;12.70;99.90
30371;DHT22;17164;48.590;11.410;2023-05-16T14:52:08;12.80;99.90
30371;DHT22;17164;48.590;11.410;2023-05-16T14:54:34;12.80;99.90
30371;DHT22;17164;48.590;11.410;2023-05-16T14:57:01;12.90;99.90
30371;DHT22;17164;48.590;11.410;2023-05-16T14:59:28;12.90;99.90
30371;DHT22;17164;48.590;11.410;2023-05-16T15:01:54;13.00;99.90
30371;DHT22;17164;48.590;11.410;2023-05-16T15:04:19;13.00;99.90
30371;DHT22;17164;48.590;11.410;2023-05-16T15:06:45;13.10;99.90
30371;DHT22;17164;48.590;11.410;2023-05-16T15:09:11;13.10;99.90
30371;DHT22;17164;48.590;11.410;2023-05-16T15:11:36;13.20;99.90
30371;DHT22;17164;48.590;11.410;2023-05-16T15:14:02;13.20;99.90
30371;DHT22;17164;48.590;11.410;2023-05-16T15:16:29;13.20;99.90
30371;DHT22;17164;48.590;11.410;2023-05-16T15:18:54;13.20;99.90
30371;DHT22;17164;48.590;11.410;2023-05-16T15:21:20;13.30;99.90
30371;DHT22;17164;48.590;11.410;2023-05-16T15:23:45;13.30;99.90
30371;DHT22;17164;48.590;11.410;2023-05-16T15:26:11;13.30;99.90
30371;DHT22;17164;48.590;11.410;2023-05-16T15:28:38;13.30;99.90